createdAt,value
2023-05-31T00:00:31.018Z,102839.84
2023-05-31T00:05:32.468Z,102840.03
2023-05-31T00:10:33.967Z,102835.78
2023-05-31T00:15:35.428Z,102830.59
2023-05-31T00:20:37.201Z,102833.28
2023-05-31T00:25:39.631Z,102822.91
2023-05-31T00:30:41.473Z,102828.19
2023-05-31T00:35:42.953Z,102831.78
2023-05-31T00:40:45.715Z,102816.56
2023-05-31T00:45:47.180Z,102832.28
2023-05-31T00:50:50.333Z,102828.88
2023-05-31T00:55:53.215Z,102832.28
2023-05-31T01:00:55.930Z,102823.69
2023-05-31T01:05:57.393Z,102819.00
2023-05-31T01:11:07.989Z,102823.75
2023-05-31T01:16:27.309Z,102816.72
2023-05-31T01:21:52.628Z,102827.81
2023-05-31T01:26:56.092Z,102823.53
2023-05-31T01:31:59.394Z,102816.78
2023-05-31T01:37:00.913Z,102836.22
2023-05-31T01:42:03.844Z,102827.94
2023-05-31T01:47:08.750Z,102818.69
2023-05-31T01:52:14.822Z,102824.13
2023-05-31T01:57:18.233Z,102830.50
2023-05-31T02:02:20.939Z,102828.81
2023-05-31T02:07:22.489Z,102827.41
2023-05-31T02:12:24.028Z,102829.22
2023-05-31T02:17:25.578Z,102826.72
2023-05-31T02:22:27.066Z,102825.16
2023-05-31T02:27:30.281Z,102825.91
2023-05-31T02:32:35.282Z,102826.78
2023-05-31T02:37:39.035Z,102829.50
2023-05-31T02:42:42.021Z,102825.25
2023-05-31T02:47:43.621Z,102829.50
2023-05-31T02:52:45.162Z,102825.28
2023-05-31T02:58:07.026Z,102820.13
2023-05-31T03:03:11.009Z,102818.50
2023-05-31T03:08:31.646Z,102826.34
2023-05-31T03:13:33.729Z,102824.69
2023-05-31T03:18:35.557Z,102814.44
2023-05-31T03:23:37.957Z,102816.97
2023-05-31T03:28:39.518Z,102814.31
2023-05-31T03:33:41.059Z,102816.78
2023-05-31T03:38:42.679Z,102812.41
2023-05-31T03:43:44.355Z,102814.03
2023-05-31T03:48:47.179Z,102820.13
2023-05-31T03:53:48.710Z,102814.19
2023-05-31T03:58:50.259Z,102806.34
2023-05-31T04:03:52.393Z,102806.22
2023-05-31T04:08:53.983Z,102817.22
2023-05-31T04:13:55.545Z,102804.22
2023-05-31T04:18:58.887Z,102816.06
2023-05-31T04:24:00.490Z,102815.03
2023-05-31T04:29:02.248Z,102811.47
2023-05-31T04:34:04.736Z,102808.66
2023-05-31T04:39:10.098Z,102819.56
2023-05-31T04:44:12.640Z,102820.88
2023-05-31T04:49:14.126Z,102805.84
2023-05-31T04:54:15.758Z,102817.41
2023-05-31T04:59:17.281Z,102817.28
2023-05-31T05:04:19.816Z,102815.91
2023-05-31T05:09:23.797Z,102811.72
2023-05-31T05:14:25.823Z,102797.38
2023-05-31T05:19:27.456Z,102800.09
2023-05-31T05:24:28.983Z,102802.97
2023-05-31T05:29:30.681Z,102793.63
2023-05-31T05:34:32.191Z,102793.84
2023-05-31T05:39:33.959Z,102799.41
2023-05-31T05:44:35.537Z,102808.13
2023-05-31T05:49:38.353Z,102803.84
2023-05-31T05:54:42.079Z,102801.25
2023-05-31T05:59:44.726Z,102797.88
2023-05-31T06:04:56.793Z,102796.44
2023-05-31T06:09:58.365Z,102793.56
2023-05-31T06:15:00.023Z,102792.22
2023-05-31T06:20:02.640Z,102782.25
2023-05-31T06:25:04.568Z,102777.28
2023-05-31T06:30:08.803Z,102769.25
2023-05-31T06:35:16.519Z,102767.78
2023-05-31T06:40:19.481Z,102760.84
2023-05-31T06:45:21.057Z,102756.34
2023-05-31T06:50:25.168Z,102756.66
2023-05-31T06:55:27.103Z,102753.59
2023-05-31T07:00:29.281Z,102748.72
2023-05-31T07:05:30.864Z,102751.72
2023-05-31T07:10:33.640Z,102749.78
2023-05-31T07:15:35.394Z,102757.69
2023-05-31T07:20:37.006Z,102753.84
2023-05-31T07:25:38.540Z,102755.34
2023-05-31T07:30:40.019Z,102755.72
2023-05-31T07:35:43.066Z,102742.06
2023-05-31T07:40:44.545Z,102738.34
2023-05-31T07:45:46.067Z,102736.53
2023-05-31T07:50:48.164Z,102736.72
2023-05-31T07:55:49.665Z,102732.16
2023-05-31T08:00:51.107Z,102741.13
2023-05-31T08:05:53.988Z,102737.00
2023-05-31T08:10:55.667Z,102742.44
2023-05-31T08:15:57.163Z,102736.31
2023-05-31T08:20:58.812Z,102744.59
2023-05-31T08:26:00.489Z,102740.97
2023-05-31T08:31:02.018Z,102735.69
2023-05-31T08:36:03.537Z,102731.59
2023-05-31T08:41:05.547Z,102736.56
2023-05-31T08:46:08.947Z,102731.72
2023-05-31T08:51:12.847Z,102733.88
2023-05-31T08:56:14.971Z,102725.63
2023-05-31T09:01:21.230Z,102726.91
2023-05-31T09:06:22.934Z,102724.16
2023-05-31T09:11:24.483Z,102713.84
2023-05-31T09:16:26.189Z,102704.22
2023-05-31T09:21:27.800Z,102691.03
2023-05-31T09:26:29.343Z,102689.22
2023-05-31T09:31:31.313Z,102685.81
2023-05-31T09:36:33.065Z,102683.22
2023-05-31T09:41:35.096Z,102681.22
2023-05-31T09:46:38.016Z,102679.88
2023-05-31T09:51:40.304Z,102676.28
2023-05-31T09:56:42.161Z,102676.16
2023-05-31T10:01:44.621Z,102671.50
2023-05-31T10:06:47.230Z,102677.66
2023-05-31T10:11:52.040Z,102676.00
2023-05-31T10:16:55.882Z,102669.59
2023-05-31T10:21:59.699Z,102667.09
2023-05-31T10:27:12.668Z,102661.41
2023-05-31T10:32:21.830Z,102666.19
2023-05-31T10:37:23.980Z,102657.09
2023-05-31T10:42:47.336Z,102656.81
2023-05-31T10:48:13.584Z,102649.84
2023-05-31T10:53:15.165Z,102640.28
2023-05-31T10:58:39.292Z,102637.28
2023-05-31T11:03:54.147Z,102634.44
2023-05-31T11:09:25.273Z,102629.34
2023-05-31T11:14:28.750Z,102633.75
2023-05-31T11:19:32.232Z,102633.84
2023-05-31T11:24:40.643Z,102622.13
2023-05-31T11:29:44.823Z,102619.72
2023-05-31T11:34:53.521Z,102625.00
2023-05-31T11:39:58.546Z,102622.00
2023-05-31T11:45:18.210Z,102616.50
2023-05-31T11:50:20.343Z,102615.44
2023-05-31T11:55:22.118Z,102614.00
2023-05-31T12:00:23.591Z,102601.16
2023-05-31T12:05:25.356Z,102600.34
2023-05-31T12:10:32.118Z,102592.16
2023-05-31T12:15:33.609Z,102587.75
2023-05-31T12:20:35.309Z,102586.50
2023-05-31T12:25:36.781Z,102573.28
2023-05-31T12:30:48.729Z,102569.66
2023-05-31T12:35:50.457Z,102573.25
2023-05-31T12:40:53.704Z,102571.31
2023-05-31T12:45:55.333Z,102568.66
2023-05-31T12:50:58.335Z,102560.84
2023-05-31T12:55:59.813Z,102553.19
2023-05-31T13:01:01.505Z,102551.66
2023-05-31T13:06:03.629Z,102555.97
2023-05-31T13:11:05.151Z,102553.63
2023-05-31T13:16:06.805Z,102548.69
2023-05-31T13:21:08.323Z,102537.28
2023-05-31T13:26:10.021Z,102524.94
2023-05-31T13:31:11.726Z,102524.00
2023-05-31T13:36:13.661Z,102518.31
2023-05-31T13:41:15.101Z,102522.31
2023-05-31T13:46:16.670Z,102523.56
2023-05-31T13:51:18.312Z,102514.31
2023-05-31T13:56:19.778Z,102516.09
2023-05-31T14:01:21.266Z,102508.00
2023-05-31T14:06:22.760Z,102509.25
2023-05-31T14:11:24.225Z,102497.22
2023-05-31T14:16:25.719Z,102499.63
2023-05-31T14:21:27.313Z,102495.75
2023-05-31T14:26:28.877Z,102497.47
2023-05-31T14:31:30.553Z,102486.03
2023-05-31T14:36:32.052Z,102494.09
2023-05-31T14:41:33.820Z,102489.16
2023-05-31T14:46:35.374Z,102484.59
2023-05-31T14:51:36.858Z,102477.84
2023-05-31T14:56:38.328Z,102464.44
2023-05-31T15:01:40.338Z,102470.34
2023-05-31T15:06:43.164Z,102469.47
2023-05-31T15:11:44.628Z,102466.38
2023-05-31T15:16:46.101Z,102463.56
2023-05-31T15:21:47.640Z,102462.41
2023-05-31T15:26:49.883Z,102459.59
2023-05-31T15:31:52.763Z,102469.75
2023-05-31T15:36:54.290Z,102466.16
2023-05-31T15:41:55.762Z,102462.09
2023-05-31T15:46:57.283Z,102445.88
2023-05-31T15:51:58.816Z,102447.00
2023-05-31T15:57:00.298Z,102438.97
2023-05-31T16:02:02.091Z,102435.09
2023-05-31T16:07:03.624Z,102427.81
2023-05-31T16:12:05.749Z,102427.66
2023-05-31T16:17:07.351Z,102426.84
2023-05-31T16:22:08.947Z,102421.84
2023-05-31T16:27:10.518Z,102421.44
2023-05-31T16:32:11.998Z,102418.72
2023-05-31T16:37:13.460Z,102419.19
2023-05-31T16:42:15.002Z,102421.25
2023-05-31T16:47:16.548Z,102421.59
2023-05-31T16:52:18.012Z,102416.84
2023-05-31T16:57:19.476Z,102413.84
2023-05-31T17:02:20.952Z,102403.38
2023-05-31T17:07:22.564Z,102403.88
2023-05-31T17:12:24.577Z,102399.09
2023-05-31T17:17:26.328Z,102389.59
2023-05-31T17:22:27.799Z,102397.81
2023-05-31T17:27:29.247Z,102391.47
2023-05-31T17:32:30.730Z,102390.16
2023-05-31T17:37:32.216Z,102384.19
2023-05-31T17:42:33.663Z,102373.50
2023-05-31T17:47:35.156Z,102378.19
2023-05-31T17:52:36.994Z,102376.41
2023-05-31T17:57:38.513Z,102377.44
2023-05-31T18:02:40.093Z,102370.22
2023-05-31T18:07:41.625Z,102364.28
2023-05-31T18:12:44.462Z,102356.28
2023-05-31T18:17:47.817Z,102362.25
2023-05-31T18:22:49.421Z,102365.84
2023-05-31T18:27:50.877Z,102367.88
2023-05-31T18:32:52.388Z,102368.03
2023-05-31T18:37:53.938Z,102367.63
2023-05-31T18:42:55.381Z,102363.44
2023-05-31T18:47:56.921Z,102356.88
2023-05-31T18:52:58.445Z,102358.06
2023-05-31T18:57:59.912Z,102356.13
2023-05-31T19:03:01.452Z,102347.91
2023-05-31T19:08:02.982Z,102346.56
2023-05-31T19:13:04.511Z,102346.94
2023-05-31T19:18:17.706Z,102344.81
2023-05-31T19:23:20.996Z,102344.34
2023-05-31T19:28:22.617Z,102357.75
2023-05-31T19:33:24.162Z,102351.22
2023-05-31T19:38:25.612Z,102357.38
2023-05-31T19:43:27.226Z,102358.59
2023-05-31T19:48:28.756Z,102363.84
2023-05-31T19:53:30.237Z,102364.69
2023-05-31T19:58:31.757Z,102368.41
2023-05-31T20:03:33.391Z,102376.06
2023-05-31T20:08:35.129Z,102375.72
2023-05-31T20:13:36.636Z,102371.72
2023-05-31T20:18:38.118Z,102371.38
2023-05-31T20:23:39.585Z,102361.34
2023-05-31T20:28:41.163Z,102368.25
2023-05-31T20:33:43.273Z,102360.66
2023-05-31T20:38:44.799Z,102363.41
2023-05-31T20:43:46.270Z,102367.03
2023-05-31T20:48:47.749Z,102361.19
2023-05-31T20:53:49.790Z,102350.91
2023-05-31T20:58:51.592Z,102346.03
2023-05-31T21:03:53.756Z,102344.09
2023-05-31T21:08:55.417Z,102336.19
2023-05-31T21:13:56.943Z,102340.91
2023-05-31T21:18:58.428Z,102340.09
2023-05-31T21:24:00.210Z,102341.78
2023-05-31T21:29:01.736Z,102337.03
2023-05-31T21:34:03.241Z,102333.91
2023-05-31T21:39:04.763Z,102321.63
2023-05-31T21:44:06.251Z,102328.56
2023-05-31T21:49:07.941Z,102323.38
2023-05-31T21:54:09.426Z,102329.78
2023-05-31T21:59:10.953Z,102322.50
2023-05-31T22:04:12.658Z,102327.69
2023-05-31T22:09:14.231Z,102331.97
2023-05-31T22:14:16.041Z,102329.19
2023-05-31T22:19:18.339Z,102328.53
2023-05-31T22:24:20.466Z,102319.34
2023-05-31T22:29:22.149Z,102333.63
2023-05-31T22:34:23.707Z,102328.16
2023-05-31T22:39:25.170Z,102330.69
2023-05-31T22:44:26.628Z,102332.81
2023-05-31T22:49:28.100Z,102327.63
2023-05-31T22:54:29.566Z,102324.78
2023-05-31T22:59:31.135Z,102326.41
2023-05-31T23:04:32.604Z,102329.25
2023-05-31T23:09:34.060Z,102328.28
2023-05-31T23:14:35.511Z,102323.88
2023-05-31T23:19:37.022Z,102333.16
2023-05-31T23:24:38.480Z,102327.13
2023-05-31T23:29:39.952Z,102322.16
2023-05-31T23:34:41.479Z,102326.66
2023-05-31T23:39:42.946Z,102334.78
2023-05-31T23:44:44.475Z,102329.66
2023-05-31T23:49:45.931Z,102324.75
2023-05-31T23:54:47.468Z,102318.53
2023-05-31T23:59:49.062Z,102314.09
